PANA

Details ICAO PANA
Name Napakiak
Region USA (Alaska)
Timezone America/Anchorage (UTC-8.0)
Plans Departing 0
Arriving 0
Stats Elevation 20 ft / 6 m (AMSL)
Location 60.691189° -161.969516°
Runways 1
Magnetic Variation 11.292° E
Sunrise 2018-05-25 13:43:20 UTC / 2018-05-25 05:43:20 Local
Sunset 2018-05-26 07:49:15 UTC / 2018-05-25 23:49:15 Local
Advertisement - Login to hide

Runways

ID Width Length Bearing (true) Bearing (mag) Surface Threshold Offset Overrun Length
16 50 ft / 15 m 2,152 ft / 656 m 178.00° 166.71° Gravel 0 ft / 0 m 0 ft / 0 m
34 50 ft / 15 m 2,152 ft / 656 m 358.00° 346.71° Gravel 0 ft / 0 m 0 ft / 0 m

Map

Weather


0- 5 10 15 20 25 30 35+ Temperature / ° C

Clouds and Precipitation
Forecast for 2018-05-25 12:00 UTC. Updated 6 hours ago

Ground ~20,000 ft ~40,000 ft Winds

METAR

PANA 251656Z AUTO 34003KT 10SM CLR 08/03 A2974 RMK AO2 SLP070 T00830028

TAF

Not found
Warning: Do not use this data for real-world aviation or navigation. No guarantee of current accuracy is given.